Time;durP1;ratioP1;P1;durP2;ratioP2;P2;SDS_P1;SDS_P2;PMS_P1;PMS_P2;Temp;Humidity;BMP_temperature;BMP_pressure;BME280_temperature;BME280_humidity;BME280_pressure;Samples;Min_cycle;Max_cycle;Signal;HPM_P1;HPM_P2
2022/08/24 00:01:20;;;;;;;5.05;2.45;;;22.30;99.90;;;;;;5034795;28;20171;-50
2022/08/24 00:03:46;;;;;;;5.82;3.17;;;22.20;99.90;;;;;;5034752;28;20164;-52
2022/08/24 00:06:18;;;;;;;4.65;2.38;;;22.30;99.90;;;;;;5034569;28;20646;-51
2022/08/24 00:08:46;;;;;;;4.80;2.33;;;22.20;99.90;;;;;;5033273;28;20171;-49
2022/08/24 00:11:12;;;;;;;4.68;2.15;;;22.20;99.90;;;;;;5034637;28;20159;-53
2022/08/24 00:13:37;;;;;;;11.40;2.88;;;22.20;99.90;;;;;;5034423;28;20677;-45
2022/08/24 00:16:05;;;;;;;6.07;2.47;;;22.30;99.90;;;;;;5034421;28;20198;-51
2022/08/24 00:18:31;;;;;;;6.68;2.47;;;22.30;99.90;;;;;;5034524;28;20631;-48
2022/08/24 00:20:56;;;;;;;3.85;2.40;;;22.20;99.90;;;;;;5034462;28;20175;-50
2022/08/24 00:23:22;;;;;;;7.38;2.20;;;22.20;99.90;;;;;;5034050;28;20178;-52
2022/08/24 00:25:47;;;;;;;6.78;2.20;;;22.20;99.90;;;;;;5034340;28;20173;-46
2022/08/24 00:28:14;;;;;;;5.88;2.22;;;22.10;99.90;;;;;;5034315;28;20696;-49
2022/08/24 00:30:39;;;;;;;8.55;2.60;;;22.10;99.90;;;;;;5034516;28;20171;-52
2022/08/24 00:33:06;;;;;;;5.28;2.15;;;22.10;99.90;;;;;;5034530;28;20184;-50
2022/08/24 00:35:31;;;;;;;7.65;2.85;;;22.10;99.90;;;;;;5034124;28;20172;-49
2022/08/24 00:37:57;;;;;;;10.05;2.42;;;22.00;99.90;;;;;;5034020;28;20704;-49
2022/08/24 00:40:32;;;;;;;6.20;2.25;;;22.00;99.90;;;;;;5034366;28;20580;-47
2022/08/24 00:43:02;;;;;;;6.68;2.47;;;22.00;99.90;;;;;;5034297;28;20175;-51
2022/08/24 00:45:28;;;;;;;10.35;2.30;;;22.00;99.90;;;;;;5033954;28;20205;-52
2022/08/24 00:48:05;;;;;;;10.88;2.40;;;22.00;99.90;;;;;;5034379;28;20208;-53
2022/08/24 00:50:48;;;;;;;9.43;2.13;;;22.00;99.90;;;;;;5033750;28;20159;-52
2022/08/24 00:53:42;;;;;;;6.22;2.70;;;21.90;99.90;;;;;;5033903;28;20163;-52
2022/08/24 00:56:13;;;;;;;7.10;2.15;;;22.00;99.90;;;;;;5033406;28;20211;-52
2022/08/24 00:58:48;;;;;;;8.68;2.50;;;21.90;99.90;;;;;;5033717;28;20669;-51
2022/08/24 01:01:13;;;;;;;7.05;2.95;;;21.90;99.90;;;;;;5033819;28;20169;-51
2022/08/24 01:03:42;;;;;;;9.63;2.60;;;21.90;99.90;;;;;;5033673;28;20619;-51
2022/08/24 01:06:08;;;;;;;6.82;2.17;;;21.90;99.90;;;;;;5033659;28;20179;-47
2022/08/24 01:08:34;;;;;;;8.13;2.60;;;21.90;99.90;;;;;;5033690;28;20577;-48
2022/08/24 01:11:07;;;;;;;8.07;2.72;;;21.90;99.90;;;;;;5033476;28;20247;-50
2022/08/24 01:13:34;;;;;;;6.38;2.05;;;22.00;99.90;;;;;;5033425;28;20211;-51
2022/08/24 01:16:04;;;;;;;6.68;2.33;;;21.90;99.90;;;;;;5033514;28;20168;-47
2022/08/24 01:18:49;;;;;;;7.20;2.60;;;21.80;99.90;;;;;;5032456;28;20186;-50
2022/08/24 01:21:20;;;;;;;8.30;2.17;;;21.80;99.90;;;;;;5033384;28;20179;-51
2022/08/24 01:23:54;;;;;;;3.17;1.85;;;21.80;99.90;;;;;;5033379;28;20175;-44
2022/08/24 01:26:39;;;;;;;11.13;2.60;;;21.80;99.90;;;;;;5033442;28;20175;-46
2022/08/24 01:29:14;;;;;;;8.18;2.10;;;21.70;99.90;;;;;;5033175;28;20171;-45
2022/08/24 01:31:40;;;;;;;12.82;2.33;;;21.70;99.90;;;;;;5033103;28;20245;-44
2022/08/24 01:34:06;;;;;;;9.60;2.90;;;21.80;99.90;;;;;;5033007;28;20583;-45
2022/08/24 01:36:54;;;;;;;10.27;2.45;;;21.80;99.90;;;;;;5032570;28;20229;-45
2022/08/24 01:39:30;;;;;;;6.63;2.67;;;21.80;99.90;;;;;;5032904;28;20176;-45
2022/08/24 01:41:56;;;;;;;4.63;2.03;;;21.80;99.90;;;;;;5033319;28;20159;-46
2022/08/24 01:44:25;;;;;;;10.95;2.13;;;21.70;99.90;;;;;;5032921;28;20274;-45
2022/08/24 01:46:53;;;;;;;4.88;2.10;;;21.80;99.90;;;;;;5033155;28;20171;-45
2022/08/24 01:49:21;;;;;;;8.55;2.20;;;21.70;99.90;;;;;;5031690;28;20630;-45
2022/08/24 01:51:47;;;;;;;5.70;2.33;;;21.70;99.90;;;;;;5032795;28;20196;-45
2022/08/24 01:54:14;;;;;;;5.47;2.20;;;21.60;99.90;;;;;;5032725;28;20167;-45
2022/08/24 01:56:40;;;;;;;8.70;2.13;;;21.50;99.90;;;;;;5032855;28;20567;-44
2022/08/24 01:59:06;;;;;;;8.73;1.98;;;21.50;99.90;;;;;;5032582;28;20189;-45
2022/08/24 02:01:36;;;;;;;4.60;2.10;;;21.50;99.90;;;;;;5032684;28;20174;-44
2022/08/24 02:04:04;;;;;;;5.90;2.22;;;21.50;99.90;;;;;;5032473;28;20254;-44
2022/08/24 02:06:31;;;;;;;6.30;2.28;;;21.50;99.90;;;;;;5032494;28;20241;-44
2022/08/24 02:08:56;;;;;;;4.43;2.05;;;21.50;99.90;;;;;;5032728;28;20176;-44
2022/08/24 02:11:22;;;;;;;6.22;2.10;;;21.50;99.90;;;;;;5032374;28;20274;-44
2022/08/24 02:13:47;;;;;;;6.57;2.40;;;21.50;99.90;;;;;;5032203;28;20215;-44
2022/08/24 02:16:13;;;;;;;7.70;2.33;;;21.50;99.90;;;;;;5032173;28;20693;-44
2022/08/24 02:18:39;;;;;;;5.38;2.40;;;21.40;99.90;;;;;;5032191;28;20266;-44
2022/08/24 02:21:10;;;;;;;9.82;2.97;;;21.40;99.90;;;;;;5032199;28;20187;-44
2022/08/24 02:23:37;;;;;;;5.05;2.38;;;21.40;99.90;;;;;;5032206;28;20194;-44
2022/08/24 02:26:05;;;;;;;9.20;3.03;;;21.40;99.90;;;;;;5032221;28;20171;-45
2022/08/24 02:28:31;;;;;;;9.98;2.58;;;21.40;99.90;;;;;;5032039;28;20216;-44
2022/08/24 02:30:57;;;;;;;5.68;2.42;;;21.40;99.90;;;;;;5030525;28;20179;-44
2022/08/24 02:33:23;;;;;;;5.40;2.35;;;21.40;99.90;;;;;;5032362;28;20593;-44
2022/08/24 02:35:49;;;;;;;6.63;2.30;;;21.30;99.90;;;;;;5031908;28;20171;-45
2022/08/24 02:38:15;;;;;;;5.70;2.47;;;21.30;99.90;;;;;;5031761;28;20171;-51
2022/08/24 02:40:42;;;;;;;5.25;2.65;;;21.20;99.90;;;;;;5031654;28;20171;-52
2022/08/24 02:43:08;;;;;;;7.18;2.47;;;21.10;99.90;;;;;;5031954;28;20179;-52
2022/08/24 02:45:38;;;;;;;4.68;2.47;;;21.10;99.90;;;;;;5031983;28;20178;-51
2022/08/24 02:48:04;;;;;;;8.52;2.40;;;21.10;99.90;;;;;;5031345;28;20167;-50
2022/08/24 02:50:30;;;;;;;12.13;3.47;;;21.00;99.90;;;;;;5032206;28;20168;-52
2022/08/24 02:52:55;;;;;;;5.28;2.40;;;20.90;99.90;;;;;;5031823;28;20218;-46
2022/08/24 02:55:21;;;;;;;6.32;2.10;;;20.90;99.90;;;;;;5032250;28;20568;-49
2022/08/24 02:57:49;;;;;;;10.50;2.83;;;20.90;99.90;;;;;;5031692;28;20597;-51
2022/08/24 03:00:18;;;;;;;6.60;2.60;;;20.80;99.90;;;;;;5031789;28;20213;-48
2022/08/24 03:02:44;;;;;;;3.17;2.30;;;20.80;99.90;;;;;;5031708;28;20619;-48
2022/08/24 03:05:10;;;;;;;7.00;2.60;;;20.80;99.90;;;;;;5031644;28;20259;-48
2022/08/24 03:07:36;;;;;;;8.13;3.08;;;20.70;99.90;;;;;;5031932;28;20262;-45
2022/08/24 03:10:04;;;;;;;7.10;2.75;;;20.80;99.90;;;;;;5031932;28;20171;-50
2022/08/24 03:12:30;;;;;;;5.70;2.10;;;20.70;99.90;;;;;;5031689;28;20315;-45
2022/08/24 03:14:56;;;;;;;5.80;2.53;;;20.70;99.90;;;;;;5031578;28;20178;-49
2022/08/24 03:17:22;;;;;;;5.32;2.20;;;20.70;99.90;;;;;;5031840;28;20203;-51
2022/08/24 03:19:49;;;;;;;8.27;2.60;;;20.70;99.90;;;;;;5031558;28;20251;-46
2022/08/24 03:22:15;;;;;;;7.03;3.03;;;20.60;99.90;;;;;;5031554;28;20175;-45
2022/08/24 03:24:40;;;;;;;7.65;3.00;;;20.70;99.90;;;;;;5031539;28;20202;-48
2022/08/24 03:27:06;;;;;;;5.70;2.53;;;20.60;99.90;;;;;;5031505;28;20171;-49
2022/08/24 03:29:33;;;;;;;6.45;2.65;;;20.50;99.90;;;;;;5031728;28;20615;-48
2022/08/24 03:31:59;;;;;;;9.27;3.17;;;20.60;99.90;;;;;;5031685;28;20179;-50
2022/08/24 03:34:25;;;;;;;4.30;2.53;;;20.60;99.90;;;;;;5031732;28;20174;-47
2022/08/24 03:36:50;;;;;;;3.88;2.88;;;20.60;99.90;;;;;;5031792;28;20213;-49
2022/08/24 03:39:17;;;;;;;6.70;2.67;;;20.50;99.90;;;;;;5031393;28;20171;-48
2022/08/24 03:41:42;;;;;;;7.60;2.95;;;20.50;99.90;;;;;;5031338;28;20175;-51
2022/08/24 03:44:08;;;;;;;5.50;2.42;;;20.50;99.90;;;;;;5031565;28;20176;-45
2022/08/24 03:46:36;;;;;;;6.25;2.58;;;20.50;99.90;;;;;;5031378;28;20382;-46
2022/08/24 03:49:07;;;;;;;5.55;2.42;;;20.50;99.90;;;;;;5031319;28;20506;-49
2022/08/24 03:51:34;;;;;;;8.13;2.55;;;20.40;99.90;;;;;;5031449;28;20280;-45
2022/08/24 03:54:01;;;;;;;10.25;2.63;;;20.50;99.90;;;;;;5031494;28;20172;-45
2022/08/24 03:56:27;;;;;;;6.40;2.65;;;20.50;99.90;;;;;;5030877;28;20697;-50
2022/08/24 03:58:53;;;;;;;17.17;8.00;;;20.50;99.90;;;;;;5033772;28;20254;-45
2022/08/24 04:01:19;;;;;;;19.52;8.27;;;20.50;99.90;;;;;;5034503;28;20519;-47
2022/08/24 04:03:47;;;;;;;11.52;5.32;;;20.50;99.90;;;;;;5034543;28;20533;-47
2022/08/24 04:06:14;;;;;;;7.72;3.50;;;20.50;99.90;;;;;;5034824;28;20163;-49
2022/08/24 04:08:40;;;;;;;7.25;3.13;;;20.30;99.90;;;;;;5034940;28;20259;-45
2022/08/24 04:11:10;;;;;;;7.57;2.90;;;20.40;99.90;;;;;;5034680;28;20199;-47
2022/08/24 04:13:36;;;;;;;9.65;3.38;;;20.30;99.90;;;;;;5034449;28;20211;-48
2022/08/24 04:16:04;;;;;;;12.07;3.08;;;20.30;99.90;;;;;;5034504;28;20172;-46
2022/08/24 04:18:30;;;;;;;14.48;3.45;;;20.30;99.90;;;;;;5034583;28;20540;-45
2022/08/24 04:20:56;;;;;;;8.10;2.90;;;20.30;99.90;;;;;;5034450;28;20263;-45
2022/08/24 04:23:22;;;;;;;12.00;3.72;;;20.30;99.90;;;;;;5034818;28;20206;-44
2022/08/24 04:25:48;;;;;;;13.13;3.28;;;20.30;99.90;;;;;;5034250;28;20544;-46
2022/08/24 04:28:19;;;;;;;13.63;5.32;;;20.30;99.90;;;;;;5034620;28;20175;-44
2022/08/24 04:30:50;;;;;;;12.00;2.97;;;20.30;99.90;;;;;;5034496;28;20254;-46
2022/08/24 04:33:18;;;;;;;14.25;3.85;;;20.20;99.90;;;;;;5034234;28;20167;-46
2022/08/24 04:35:46;;;;;;;12.65;3.13;;;20.10;99.90;;;;;;5034211;28;20179;-46
2022/08/24 04:38:13;;;;;;;8.15;2.72;;;20.20;99.90;;;;;;5034030;28;20243;-45
2022/08/24 04:40:40;;;;;;;8.23;3.03;;;20.10;99.90;;;;;;5032881;28;20177;-45
2022/08/24 04:43:07;;;;;;;13.52;3.15;;;20.00;99.90;;;;;;5034145;28;20673;-48
2022/08/24 04:45:37;;;;;;;11.05;3.08;;;20.00;99.90;;;;;;5034309;28;20172;-45
2022/08/24 04:48:02;;;;;;;10.93;3.80;;;19.90;99.90;;;;;;5034019;28;20258;-45
2022/08/24 04:50:28;;;;;;;11.02;2.90;;;19.90;99.90;;;;;;5033919;28;20576;-45
2022/08/24 04:52:54;;;;;;;9.85;3.38;;;19.90;99.90;;;;;;5034312;28;20167;-44
2022/08/24 04:55:19;;;;;;;10.20;3.85;;;20.00;99.90;;;;;;5033795;28;20159;-45
2022/08/24 04:57:45;;;;;;;12.57;3.67;;;19.90;99.90;;;;;;5032581;28;20203;-44
2022/08/24 05:00:11;;;;;;;12.32;3.13;;;20.00;99.90;;;;;;5033849;28;20174;-47
2022/08/24 05:02:38;;;;;;;6.75;3.38;;;19.90;99.90;;;;;;5033773;28;20171;-45
2022/08/24 05:05:06;;;;;;;5.30;3.17;;;19.90;99.90;;;;;;5033556;28;20160;-46
2022/08/24 05:07:32;;;;;;;6.95;2.95;;;19.90;99.90;;;;;;5033227;28;20200;-47
2022/08/24 05:09:57;;;;;;;4.25;2.88;;;19.70;99.90;;;;;;5032631;28;20546;-45
2022/08/24 05:12:23;;;;;;;8.20;3.05;;;19.80;99.90;;;;;;5033776;28;20261;-46
2022/08/24 05:14:49;;;;;;;10.10;3.45;;;19.90;99.90;;;;;;5033270;28;20174;-52
2022/08/24 05:17:16;;;;;;;7.40;3.30;;;19.80;99.90;;;;;;5035808;28;20214;-46
2022/08/24 05:19:43;;;;;;;10.30;3.47;;;19.90;99.90;;;;;;5042522;28;20170;-47
2022/08/24 05:22:09;;;;;;;6.72;3.40;;;19.90;99.90;;;;;;5043508;28;20178;-53
2022/08/24 05:24:35;;;;;;;8.48;3.30;;;20.00;99.90;;;;;;5053022;28;20246;-53
2022/08/24 05:27:00;;;;;;;8.00;3.30;;;20.20;99.90;;;;;;5053184;28;20649;-52
2022/08/24 05:29:26;;;;;;;6.80;3.33;;;20.10;99.90;;;;;;5053119;28;20202;-53
2022/08/24 05:31:52;;;;;;;10.98;3.17;;;20.10;99.90;;;;;;5053641;28;20748;-51
2022/08/24 05:34:18;;;;;;;6.53;3.08;;;20.20;99.90;;;;;;5052572;28;20250;-54
2022/08/24 05:36:44;;;;;;;10.15;3.83;;;20.20;99.90;;;;;;5053009;28;21181;-53
2022/08/24 05:39:12;;;;;;;10.45;3.65;;;20.40;99.90;;;;;;5053100;28;20167;-51
2022/08/24 05:41:42;;;;;;;9.88;3.13;;;20.50;99.90;;;;;;5052951;28;20250;-53
2022/08/24 05:44:09;;;;;;;5.07;3.10;;;20.50;99.90;;;;;;5052812;28;20170;-51
2022/08/24 05:46:35;;;;;;;7.38;3.47;;;20.50;99.90;;;;;;5052843;28;20626;-52
2022/08/24 05:49:00;;;;;;;10.60;3.65;;;20.60;99.90;;;;;;5052833;28;20257;-53
2022/08/24 05:51:27;;;;;;;13.70;4.18;;;20.60;99.90;;;;;;5052782;28;20167;-48
2022/08/24 05:53:53;;;;;;;10.00;3.97;;;20.70;99.90;;;;;;5053091;28;20170;-52
2022/08/24 05:56:20;;;;;;;8.40;3.60;;;20.90;99.90;;;;;;5052616;28;20218;-52
2022/08/24 05:58:45;;;;;;;5.35;3.40;;;21.00;99.90;;;;;;5052863;28;20210;-53
2022/08/24 06:01:15;;;;;;;9.02;3.80;;;21.00;99.90;;;;;;5052559;28;20202;-51
2022/08/24 06:03:41;;;;;;;7.35;3.50;;;21.10;99.90;;;;;;5052598;28;20162;-52
2022/08/24 06:06:08;;;;;;;7.97;3.65;;;21.20;99.90;;;;;;5052564;28;20175;-51
2022/08/24 06:08:40;;;;;;;6.43;3.50;;;21.30;99.90;;;;;;5050741;28;20171;-52
2022/08/24 06:11:06;;;;;;;12.25;6.10;;;21.50;99.90;;;;;;5050901;28;20561;-50
2022/08/24 06:13:32;;;;;;;11.02;5.38;;;21.50;99.90;;;;;;5052147;28;20221;-52
2022/08/24 06:16:10;;;;;;;17.90;5.57;;;21.40;99.90;;;;;;5050849;28;20171;-48
2022/08/24 06:18:36;;;;;;;18.23;8.93;;;21.50;99.90;;;;;;5052314;28;20257;-51
2022/08/24 06:21:11;;;;;;;9.65;5.45;;;21.60;99.90;;;;;;5050708;28;20180;-52
2022/08/24 06:23:39;;;;;;;13.55;5.82;;;21.70;99.90;;;;;;5052195;28;20193;-53
2022/08/24 06:28:51;;;;;;;9.63;5.22;;;22.00;99.90;;;;;;5052750;28;20181;-52
2022/08/24 06:31:17;;;;;;;13.73;7.00;;;22.10;99.90;;;;;;5051963;28;20686;-53
2022/08/24 06:33:43;;;;;;;29.70;15.93;;;22.20;99.90;;;;;;5051875;28;20269;-53
2022/08/24 06:36:09;;;;;;;11.18;6.70;;;22.30;99.90;;;;;;5050831;28;20210;-53
2022/08/24 06:38:35;;;;;;;14.20;7.47;;;22.30;99.90;;;;;;5051877;28;20221;-52
2022/08/24 06:41:00;;;;;;;13.90;7.82;;;22.20;99.90;;;;;;5052004;28;20509;-52
2022/08/24 06:43:26;;;;;;;20.42;7.55;;;22.30;99.90;;;;;;5051734;28;20630;-52
2022/08/24 06:45:54;;;;;;;17.92;9.40;;;22.60;99.90;;;;;;5052287;28;20672;-52
2022/08/24 06:48:20;;;;;;;14.93;6.68;;;22.60;99.90;;;;;;5052119;28;20174;-51
2022/08/24 06:50:46;;;;;;;20.92;8.75;;;22.70;99.90;;;;;;5051704;28;20253;-49
2022/08/24 06:53:13;;;;;;;11.60;5.00;;;22.70;99.90;;;;;;5050445;28;20559;-49
2022/08/24 06:55:44;;;;;;;8.85;4.88;;;22.80;99.90;;;;;;5051986;28;20178;-49
2022/08/24 06:58:10;;;;;;;8.13;5.57;;;23.00;99.90;;;;;;5051638;28;20617;-52
2022/08/24 07:00:35;;;;;;;12.30;6.40;;;23.10;99.90;;;;;;5051736;28;20163;-47
2022/08/24 07:03:01;;;;;;;7.55;4.75;;;23.10;99.90;;;;;;5051622;28;20174;-47
2022/08/24 07:05:27;;;;;;;6.05;4.45;;;23.10;99.90;;;;;;5050847;28;20638;-45
2022/08/24 07:07:52;;;;;;;12.13;4.28;;;23.20;99.90;;;;;;5051962;28;20631;-50
2022/08/24 07:10:18;;;;;;;7.72;3.60;;;23.30;99.90;;;;;;5051605;28;20507;-48
2022/08/24 07:12:44;;;;;;;6.30;4.13;;;23.40;99.90;;;;;;5050172;28;20221;-49
2022/08/24 07:15:10;;;;;;;6.60;4.50;;;23.50;99.90;;;;;;5051766;28;20209;-50
2022/08/24 07:17:35;;;;;;;7.95;4.03;;;23.60;99.90;;;;;;5051579;28;20198;-52
2022/08/24 07:20:01;;;;;;;6.82;4.07;;;23.70;99.90;;;;;;5051808;28;20197;-51
2022/08/24 07:22:27;;;;;;;8.52;4.50;;;23.70;99.90;;;;;;5051441;28;20163;-50
2022/08/24 07:24:53;;;;;;;10.93;4.40;;;23.80;99.90;;;;;;5052025;28;20171;-45
2022/08/24 07:27:18;;;;;;;7.20;4.15;;;23.80;99.90;;;;;;5051439;28;20240;-47
2022/08/24 07:29:44;;;;;;;10.18;4.28;;;23.80;99.90;;;;;;5051154;28;20170;-52
2022/08/24 07:32:11;;;;;;;5.80;4.05;;;23.90;99.90;;;;;;5051593;28;20292;-46
2022/08/24 07:34:36;;;;;;;5.03;4.10;;;24.10;99.90;;;;;;5055015;28;20171;-46
2022/08/24 07:37:02;;;;;;;8.02;3.60;;;24.30;99.90;;;;;;5055187;28;20202;-51
2022/08/24 07:39:29;;;;;;;7.85;4.22;;;24.40;99.90;;;;;;5055210;28;20182;-52
2022/08/24 07:41:56;;;;;;;7.93;4.72;;;24.40;99.90;;;;;;5055409;28;20201;-51
2022/08/24 07:44:21;;;;;;;7.65;4.13;;;24.40;99.90;;;;;;5055799;28;20200;-52
2022/08/24 07:46:48;;;;;;;4.97;3.83;;;24.50;99.90;;;;;;5055163;28;20171;-52
2022/08/24 07:49:13;;;;;;;5.35;4.00;;;24.80;99.90;;;;;;5055045;28;20770;-52
2022/08/24 07:51:40;;;;;;;8.90;4.57;;;24.80;99.90;;;;;;5054986;28;20174;-50
2022/08/24 07:54:05;;;;;;;5.82;4.03;;;25.00;99.90;;;;;;5055037;28;20159;-53
2022/08/24 07:56:31;;;;;;;6.00;4.38;;;25.10;99.90;;;;;;5054877;28;20198;-48
2022/08/24 07:58:57;;;;;;;8.02;4.20;;;25.20;99.90;;;;;;5054946;28;20170;-45
2022/08/24 08:01:22;;;;;;;11.27;5.43;;;25.40;99.90;;;;;;5055188;28;20590;-45
2022/08/24 08:03:49;;;;;;;10.13;4.20;;;25.40;99.90;;;;;;5055119;28;20269;-45
2022/08/24 08:06:16;;;;;;;11.02;4.20;;;25.60;99.90;;;;;;5054736;28;20569;-49
2022/08/24 08:08:42;;;;;;;6.65;4.95;;;25.70;99.90;;;;;;5054686;28;20167;-51
2022/08/24 08:11:08;;;;;;;10.68;4.97;;;25.70;99.90;;;;;;5054634;28;20623;-48
2022/08/24 08:13:35;;;;;;;7.65;3.85;;;25.70;99.90;;;;;;5054554;28;20230;-51
2022/08/24 08:16:02;;;;;;;5.35;4.38;;;25.70;99.90;;;;;;5054898;28;20174;-52
2022/08/24 08:18:29;;;;;;;11.43;5.32;;;25.80;99.90;;;;;;5054574;28;20182;-45
2022/08/24 08:20:55;;;;;;;16.92;4.93;;;25.90;99.90;;;;;;5054490;28;20638;-49
2022/08/24 08:26:07;;;;;;;10.82;5.07;;;26.00;99.90;;;;;;5054490;28;20173;-46
2022/08/24 08:28:32;;;;;;;12.82;4.50;;;26.20;99.90;;;;;;5054486;28;20257;-48
2022/08/24 08:30:59;;;;;;;8.52;4.07;;;26.30;99.90;;;;;;5054415;28;20249;-47
2022/08/24 08:33:26;;;;;;;9.70;4.68;;;26.50;99.90;;;;;;5054278;28;20629;-48
2022/08/24 08:36:10;;;;;;;16.38;5.55;;;26.50;99.90;;;;;;5054639;28;20170;-50
2022/08/24 08:38:38;;;;;;;7.97;4.68;;;26.70;99.90;;;;;;5054149;28;20178;-47
2022/08/24 08:41:20;;;;;;;14.23;4.30;;;26.80;99.90;;;;;;5054384;28;20202;-51
2022/08/24 08:43:59;;;;;;;11.25;4.90;;;27.00;99.90;;;;;;5054239;28;20174;-47
2022/08/24 08:46:52;;;;;;;10.02;3.75;;;27.00;99.90;;;;;;5054358;28;20204;-51
2022/08/24 08:49:24;;;;;;;9.45;3.70;;;27.00;99.90;;;;;;5053948;28;20166;-51
2022/08/24 08:52:23;;;;;;;4.05;3.35;;;27.20;99.90;;;;;;5054296;28;20166;-48
2022/08/24 08:54:55;;;;;;;9.07;4.20;;;27.40;99.90;;;;;;5054450;28;20208;-47
2022/08/24 08:57:37;;;;;;;11.50;3.70;;;27.60;99.90;;;;;;5052766;28;20201;-51
2022/08/24 09:00:03;;;;;;;10.23;3.33;;;27.70;99.90;;;;;;5053853;28;20637;-50
2022/08/24 09:02:44;;;;;;;6.53;3.63;;;27.70;99.90;;;;;;5053999;28;20180;-52
2022/08/24 09:05:46;;;;;;;9.05;3.85;;;27.90;99.90;;;;;;5053722;28;20629;-52
2022/08/24 09:08:29;;;;;;;9.02;3.10;;;28.00;99.90;;;;;;5031750;28;20584;-51
2022/08/24 09:11:14;;;;;;;6.20;3.30;;;28.10;99.90;;;;;;5052064;28;20280;-49
2022/08/24 09:13:55;;;;;;;5.45;3.53;;;27.90;99.90;;;;;;5053389;28;20305;-52
2022/08/24 09:16:39;;;;;;;10.43;3.40;;;28.10;99.90;;;;;;5053586;28;20706;-52
2022/08/24 09:19:36;;;;;;;6.65;3.42;;;28.10;99.90;;;;;;5053454;28;20174;-52
2022/08/24 09:22:15;;;;;;;8.50;3.28;;;28.10;99.90;;;;;;5053432;28;20174;-49
2022/08/24 09:24:53;;;;;;;11.13;3.63;;;28.10;99.90;;;;;;5053322;28;20168;-48
2022/08/24 09:27:45;;;;;;;9.15;3.00;;;28.10;99.90;;;;;;5053592;28;20594;-47
2022/08/24 09:30:18;;;;;;;4.78;3.17;;;28.20;99.90;;;;;;5051925;28;20665;-45
2022/08/24 09:32:57;;;;;;;6.30;3.35;;;28.40;99.90;;;;;;5053487;28;20269;-52
2022/08/24 09:36:01;;;;;;;4.97;3.45;;;28.60;99.90;;;;;;5051890;28;20252;-45
2022/08/24 09:38:33;;;;;;;6.57;3.45;;;28.90;99.90;;;;;;5053119;28;20330;-48
2022/08/24 09:41:17;;;;;;;11.73;3.25;;;28.90;99.90;;;;;;5053165;28;20174;-49
2022/08/24 09:44:34;;;;;;;4.10;3.28;;;29.00;99.90;;;;;;5052934;28;20200;-47
2022/08/24 09:47:21;;;;;;;5.28;2.80;;;29.20;99.90;;;;;;5029821;28;20252;-47
2022/08/24 09:49:47;;;;;;;4.75;2.88;;;29.30;99.90;;;;;;5053092;28;20170;-48
2022/08/24 09:52:44;;;;;;;7.45;2.70;;;29.40;99.90;;;;;;5053096;28;20225;-45
2022/08/24 09:55:55;;;;;;;4.10;3.10;;;29.40;99.90;;;;;;5052674;28;20158;-50
2022/08/24 09:58:49;;;;;;;7.00;2.50;;;29.60;99.90;;;;;;5052457;28;20307;-46
2022/08/24 10:01:27;;;;;;;7.10;3.35;;;29.80;99.90;;;;;;5052221;28;20205;-48
2022/08/24 10:04:33;;;;;;;5.07;2.75;;;29.80;99.90;;;;;;5052964;28;20166;-47
2022/08/24 10:07:10;;;;;;;8.60;3.00;;;29.90;99.90;;;;;;5052652;28;20239;-48
2022/08/24 10:09:55;;;;;;;11.35;3.08;;;30.20;99.90;;;;;;5052498;28;20235;-45
2022/08/24 10:12:43;;;;;;;3.85;2.97;;;30.10;99.90;;;;;;5051991;28;20209;-47
2022/08/24 10:15:18;;;;;;;7.20;2.80;;;29.60;99.90;;;;;;5051696;28;20194;-46
2022/08/24 10:18:09;;;;;;;8.20;3.70;;;30.30;99.90;;;;;;5052224;28;20219;-46
2022/08/24 10:20:46;;;;;;;4.88;3.00;;;30.30;99.90;;;;;;5052158;28;20197;-48
2022/08/24 10:23:42;;;;;;;5.75;3.08;;;30.30;99.90;;;;;;5052244;28;20173;-45
2022/08/24 10:26:24;;;;;;;7.60;3.28;;;30.50;99.90;;;;;;5052084;28;20212;-53
2022/08/24 10:29:18;;;;;;;4.72;2.85;;;30.50;99.90;;;;;;5052451;28;20178;-46
2022/08/24 10:32:12;;;;;;;5.43;3.15;;;30.40;99.90;;;;;;5052252;28;20162;-47
2022/08/24 10:34:58;;;;;;;6.95;2.88;;;30.50;99.90;;;;;;5052398;28;20552;-45
2022/08/24 10:41:13;;;;;;;5.93;2.70;;;30.60;99.90;;;;;;5030000;28;20593;-45
2022/08/24 10:44:04;;;;;;;9.55;3.67;;;30.60;99.90;;;;;;5029887;28;20224;-46
2022/08/24 10:46:50;;;;;;;4.65;2.80;;;30.70;99.90;;;;;;5048830;28;20539;-45
2022/08/24 10:49:52;;;;;;;7.18;3.08;;;30.90;99.90;;;;;;5051841;28;20158;-46
2022/08/24 10:52:39;;;;;;;9.65;3.45;;;30.90;99.90;;;;;;5051732;28;20602;-46
2022/08/24 10:55:18;;;;;;;3.60;2.60;;;31.00;99.90;;;;;;5051763;28;20188;-46
2022/08/24 10:58:12;;;;;;;4.30;3.15;;;30.80;99.90;;;;;;5051794;28;20202;-45
2022/08/24 11:00:38;;;;;;;6.53;3.53;;;31.00;99.60;;;;;;5051637;28;20165;-46
2022/08/24 11:03:27;;;;;;;5.05;3.03;;;31.10;99.50;;;;;;5051713;28;20170;-45
2022/08/24 11:05:55;;;;;;;3.67;2.65;;;31.30;99.90;;;;;;5051998;28;20626;-45
2022/08/24 11:08:26;;;;;;;4.25;2.70;;;31.30;99.90;;;;;;5053466;28;20636;-45
2022/08/24 11:11:03;;;;;;;3.03;2.60;;;31.30;99.60;;;;;;5056362;28;20170;-46
2022/08/24 11:13:29;;;;;;;3.67;2.78;;;31.30;99.10;;;;;;5055754;28;20296;-44
2022/08/24 11:15:58;;;;;;;10.25;3.13;;;31.50;98.00;;;;;;5055527;28;20597;-46
2022/08/24 11:18:25;;;;;;;5.05;4.35;;;31.50;99.30;;;;;;5055698;28;20206;-44
2022/08/24 11:20:54;;;;;;;3.85;2.65;;;31.80;98.20;;;;;;5055909;28;20670;-53
2022/08/24 11:23:27;;;;;;;6.22;3.72;;;31.70;96.90;;;;;;5055641;28;20641;-48
2022/08/24 11:26:12;;;;;;;11.63;5.75;;;31.70;97.70;;;;;;5055574;28;20197;-52
2022/08/24 11:28:45;;;;;;;9.57;5.40;;;31.80;96.50;;;;;;5055423;28;20170;-51
2022/08/24 11:31:19;;;;;;;13.20;4.70;;;31.70;96.50;;;;;;5055415;28;20174;-53
2022/08/24 11:33:51;;;;;;;14.45;7.15;;;31.90;96.10;;;;;;5054316;28;20658;-51
2022/08/24 11:36:24;;;;;;;4.38;2.47;;;32.00;96.30;;;;;;5055240;28;20233;-53
2022/08/24 11:39:16;;;;;;;6.68;2.83;;;32.10;96.60;;;;;;5055779;28;20537;-44
2022/08/24 11:42:13;;;;;;;6.60;2.63;;;32.10;95.50;;;;;;5055191;28;20641;-46
2022/08/24 11:44:53;;;;;;;5.80;2.30;;;32.10;95.50;;;;;;5055409;28;20197;-45
2022/08/24 11:47:38;;;;;;;5.75;2.60;;;32.40;95.90;;;;;;5055257;28;20166;-45
2022/08/24 11:50:18;;;;;;;3.22;2.38;;;32.40;95.80;;;;;;5055404;28;20170;-45
2022/08/24 11:52:50;;;;;;;8.77;3.92;;;32.30;95.20;;;;;;5055112;28;20237;-46
2022/08/24 11:55:26;;;;;;;44.20;21.15;;;32.20;94.40;;;;;;5055286;28;20174;-45
2022/08/24 11:58:06;;;;;;;13.32;7.05;;;32.40;93.60;;;;;;5055110;28;20243;-46
2022/08/24 12:00:56;;;;;;;18.45;8.10;;;32.40;93.90;;;;;;5054933;28;20197;-45
2022/08/24 12:03:52;;;;;;;8.35;3.92;;;32.60;93.40;;;;;;5055145;28;20158;-50
2022/08/24 12:06:55;;;;;;;8.32;5.25;;;32.70;93.00;;;;;;5054832;28;20166;-45
2022/08/24 12:09:27;;;;;;;4.13;2.65;;;32.50;92.30;;;;;;5018731;28;20181;-45
2022/08/24 12:12:11;;;;;;;13.93;6.82;;;32.80;93.00;;;;;;5053964;28;20711;-49
2022/08/24 12:14:47;;;;;;;5.35;1.98;;;33.00;92.00;;;;;;5054422;28;20637;-45
2022/08/24 12:17:23;;;;;;;8.82;4.68;;;32.90;91.50;;;;;;5053994;28;20205;-48
2022/08/24 12:19:55;;;;;;;6.65;2.38;;;33.00;92.30;;;;;;5053746;28;20636;-45
2022/08/24 12:22:22;;;;;;;5.45;2.35;;;32.90;92.10;;;;;;5054286;28;20170;-46
2022/08/24 12:24:53;;;;;;;5.05;2.40;;;32.70;91.20;;;;;;5054506;28;20194;-47
2022/08/24 12:27:38;;;;;;;4.93;2.50;;;32.50;90.80;;;;;;5052722;28;20618;-46
2022/08/24 12:30:15;;;;;;;3.85;2.05;;;32.70;92.20;;;;;;5054125;28;20641;-46
2022/08/24 12:32:48;;;;;;;3.88;2.20;;;32.20;90.70;;;;;;5054111;28;20648;-46
2022/08/24 12:35:27;;;;;;;2.30;2.10;;;32.10;90.60;;;;;;5054012;28;20174;-45
2022/08/24 12:37:52;;;;;;;6.57;2.10;;;32.20;90.70;;;;;;5054489;28;20279;-50
2022/08/24 12:40:41;;;;;;;5.53;2.30;;;31.70;90.80;;;;;;5053831;28;20213;-48
2022/08/24 12:43:13;;;;;;;3.97;2.33;;;31.90;91.80;;;;;;5053851;28;20200;-48
2022/08/24 12:45:39;;;;;;;5.60;2.35;;;32.40;92.00;;;;;;5053898;28;20169;-47
2022/08/24 12:48:04;;;;;;;6.03;2.40;;;32.70;90.80;;;;;;5053914;28;20170;-51
2022/08/24 12:50:46;;;;;;;3.92;2.22;;;32.80;90.50;;;;;;5053861;28;20535;-49
2022/08/24 12:53:37;;;;;;;4.90;2.10;;;33.10;90.20;;;;;;5053559;28;20170;-51
2022/08/24 12:56:28;;;;;;;2.90;2.22;;;33.10;88.80;;;;;;5053711;28;20541;-50
2022/08/24 12:58:57;;;;;;;2.85;2.00;;;33.20;88.40;;;;;;5053297;28;20173;-51
2022/08/24 13:01:26;;;;;;;3.88;2.50;;;33.30;88.70;;;;;;5053272;28;20162;-46
2022/08/24 13:04:14;;;;;;;4.00;2.30;;;33.10;88.30;;;;;;5053784;28;20701;-54
2022/08/24 13:06:49;;;;;;;3.67;2.40;;;33.20;87.10;;;;;;5053616;28;20170;-53
2022/08/24 13:09:46;;;;;;;2.80;2.50;;;33.30;86.10;;;;;;5053248;28;20174;-53
2022/08/24 13:12:44;;;;;;;3.63;2.78;;;33.40;86.10;;;;;;5052700;28;20261;-54
2022/08/24 13:15:22;;;;;;;4.40;2.22;;;33.80;87.00;;;;;;5052716;28;20162;-51
2022/08/24 13:17:58;;;;;;;2.80;2.22;;;33.90;83.00;;;;;;5053088;28;20210;-50